createdAt,value
2019-06-07T00:00:32.171Z,15.88
2019-06-07T00:02:46.961Z,15.93
2019-06-07T00:05:21.789Z,15.99
2019-06-07T00:08:07.804Z,15.97
2019-06-07T00:10:45.660Z,15.94
2019-06-07T00:13:21.071Z,15.97
2019-06-07T00:15:53.236Z,15.91
2019-06-07T00:18:30.470Z,15.92
2019-06-07T00:21:02.713Z,15.89
2019-06-07T00:23:34.713Z,15.99
2019-06-07T00:26:06.585Z,16.00
2019-06-07T00:28:37.999Z,15.94
2019-06-07T00:31:11.542Z,15.95
2019-06-07T00:33:43.251Z,15.85
2019-06-07T00:36:17.583Z,15.89
2019-06-07T00:38:47.776Z,15.94
2019-06-07T00:41:23.794Z,15.97
2019-06-07T00:43:56.034Z,15.98
2019-06-07T00:46:29.254Z,15.92
2019-06-07T00:49:00.832Z,15.88
2019-06-07T00:51:49.887Z,15.92
2019-06-07T00:54:14.602Z,15.93
2019-06-07T00:56:44.302Z,15.98
2019-06-07T00:59:19.136Z,15.98
2019-06-07T01:01:50.500Z,16.04
2019-06-07T01:04:27.269Z,16.04
2019-06-07T01:07:01.801Z,16.04
2019-06-07T01:09:34.940Z,16.05
2019-06-07T01:12:06.621Z,16.10
2019-06-07T01:14:38.921Z,16.15
2019-06-07T01:17:39.859Z,16.12
2019-06-07T01:19:58.688Z,16.14
2019-06-07T01:22:30.145Z,16.08
2019-06-07T01:25:03.487Z,16.11
2019-06-07T01:27:35.770Z,16.16
2019-06-07T01:30:09.139Z,16.15
2019-06-07T01:32:43.170Z,16.16
2019-06-07T01:35:21.414Z,16.18
2019-06-07T01:37:53.873Z,16.21
2019-06-07T01:40:31.926Z,16.17
2019-06-07T01:43:00.298Z,16.11
2019-06-07T01:45:31.654Z,16.12
2019-06-07T01:48:06.523Z,16.09
2019-06-07T01:50:37.906Z,15.98
2019-06-07T01:53:11.710Z,15.77
2019-06-07T01:55:44.025Z,15.74
2019-06-07T01:58:17.103Z,15.68
2019-06-07T02:00:49.259Z,15.61
2019-06-07T02:03:29.372Z,15.46
2019-06-07T02:06:02.413Z,15.36
2019-06-07T02:08:41.838Z,15.27
2019-06-07T02:11:13.454Z,15.22
2019-06-07T02:13:44.966Z,15.28
2019-06-07T02:16:16.378Z,15.15
2019-06-07T02:19:01.221Z,15.13
2019-06-07T02:21:24.707Z,15.08
2019-06-07T02:23:57.936Z,15.07
2019-06-07T02:26:32.579Z,15.07
2019-06-07T02:29:05.030Z,15.09
2019-06-07T02:31:42.102Z,14.95
2019-06-07T02:34:15.722Z,14.82
2019-06-07T02:36:50.362Z,14.71
2019-06-07T02:39:30.894Z,14.63
2019-06-07T02:41:59.989Z,14.60
2019-06-07T02:44:44.298Z,14.59
2019-06-07T02:47:35.948Z,14.57
2019-06-07T02:49:57.459Z,14.59
2019-06-07T02:52:46.463Z,14.53
2019-06-07T02:56:10.811Z,14.45
2019-06-07T02:58:05.918Z,14.45
2019-06-07T03:01:06.749Z,14.58
2019-06-07T03:03:24.506Z,14.68
2019-06-07T03:06:03.132Z,14.86
2019-06-07T03:08:47.395Z,15.05
2019-06-07T03:11:28.225Z,15.22
2019-06-07T03:14:01.629Z,15.37
2019-06-07T03:16:40.047Z,15.46
2019-06-07T03:22:19.906Z,15.56
2019-06-07T03:24:54.459Z,15.67
2019-06-07T03:27:36.200Z,15.72
2019-06-07T03:30:00.245Z,15.76
2019-06-07T03:32:36.863Z,15.81
2019-06-07T03:35:06.580Z,15.84
2019-06-07T03:37:42.295Z,15.88
2019-06-07T03:40:11.401Z,15.89
2019-06-07T03:42:43.526Z,15.94
2019-06-07T03:45:15.798Z,15.99
2019-06-07T03:47:47.830Z,16.01
2019-06-07T03:50:19.782Z,16.13
2019-06-07T03:52:51.859Z,16.16
2019-06-07T03:55:24.287Z,16.20
2019-06-07T04:00:31.168Z,16.14
2019-06-07T04:03:32.376Z,16.15
2019-06-07T04:05:53.741Z,16.12
2019-06-07T04:08:33.540Z,16.12
2019-06-07T04:11:16.803Z,16.18
2019-06-07T04:13:54.443Z,16.16
2019-06-07T04:16:40.431Z,16.17
2019-06-07T04:19:13.330Z,16.20
2019-06-07T04:21:57.951Z,16.38
2019-06-07T04:24:36.579Z,16.60
2019-06-07T04:27:10.724Z,16.70
2019-06-07T04:30:06.633Z,16.74
2019-06-07T04:32:31.660Z,16.67
2019-06-07T04:35:13.069Z,16.80
2019-06-07T04:38:01.761Z,16.63
2019-06-07T04:40:42.797Z,16.53
2019-06-07T04:43:21.824Z,16.79
2019-06-07T04:45:56.209Z,16.82
2019-06-07T04:48:54.290Z,17.00
2019-06-07T04:51:37.143Z,17.16
2019-06-07T04:54:19.104Z,17.06
2019-06-07T04:57:16.138Z,16.92
2019-06-07T05:00:22.618Z,17.05
2019-06-07T05:02:29.549Z,17.21
2019-06-07T05:05:06.551Z,17.17
2019-06-07T05:07:45.941Z,17.30
2019-06-07T05:10:26.776Z,17.38
2019-06-07T05:13:10.877Z,17.26
2019-06-07T05:15:51.995Z,17.25
2019-06-07T05:18:33.712Z,17.34
2019-06-07T05:21:22.948Z,17.31
2019-06-07T05:24:12.954Z,17.40
2019-06-07T05:26:55.505Z,17.75
2019-06-07T05:29:44.387Z,18.13
2019-06-07T05:32:19.125Z,18.43
2019-06-07T05:35:03.567Z,18.85
2019-06-07T05:37:50.295Z,19.04
2019-06-07T05:40:48.830Z,19.03
2019-06-07T05:43:39.219Z,18.97
2019-06-07T05:46:24.638Z,18.95
2019-06-07T05:49:10.336Z,18.84
2019-06-07T05:51:53.476Z,18.77
2019-06-07T05:54:45.528Z,18.78
2019-06-07T05:57:36.940Z,18.96
2019-06-07T06:00:15.280Z,19.33
2019-06-07T06:03:05.721Z,19.60
2019-06-07T06:05:54.619Z,19.43
2019-06-07T06:08:50.952Z,19.48
2019-06-07T06:11:43.350Z,19.49
2019-06-07T06:14:47.043Z,19.77
2019-06-07T06:17:41.385Z,19.65
2019-06-07T06:20:54.482Z,19.63
2019-06-07T06:23:01.652Z,19.68
2019-06-07T06:25:34.404Z,19.65
2019-06-07T06:28:12.292Z,19.65
2019-06-07T06:30:41.218Z,19.74
2019-06-07T06:33:30.448Z,19.58
2019-06-07T06:35:49.419Z,19.45
2019-06-07T06:38:21.068Z,19.12
2019-06-07T06:41:11.725Z,19.11
2019-06-07T06:43:25.503Z,19.24
2019-06-07T06:45:57.583Z,19.35
2019-06-07T06:48:29.750Z,19.37
2019-06-07T06:51:01.901Z,19.30
2019-06-07T06:53:34.353Z,19.62
2019-06-07T06:56:06.412Z,20.06
2019-06-07T06:59:21.531Z,19.97
2019-06-07T07:01:12.371Z,19.77
2019-06-07T07:04:00.809Z,19.47
2019-06-07T07:06:26.921Z,19.27
2019-06-07T07:08:53.724Z,19.20
2019-06-07T07:11:25.124Z,18.97
2019-06-07T07:13:57.075Z,19.57
2019-06-07T07:16:28.508Z,19.96
2019-06-07T07:19:00.424Z,20.34
2019-06-07T07:21:31.838Z,20.90
2019-06-07T07:24:20.266Z,21.04
2019-06-07T07:26:36.916Z,20.65
2019-06-07T07:29:08.947Z,20.36
2019-06-07T07:31:40.983Z,19.86
2019-06-07T07:41:21.523Z,19.39
2019-06-07T07:48:08.244Z,18.53
2019-06-07T07:50:26.589Z,19.68
2019-06-07T07:53:00.682Z,19.70
2019-06-07T07:55:32.547Z,19.67
2019-06-07T07:58:04.675Z,19.63
2019-06-07T08:01:07.744Z,19.64
2019-06-07T08:03:28.023Z,19.63
2019-06-07T08:06:00.235Z,19.43
2019-06-07T08:08:31.687Z,19.15
2019-06-07T08:11:02.960Z,19.50
2019-06-07T08:13:35.056Z,19.65
2019-06-07T08:16:12.419Z,19.89
2019-06-07T08:18:39.476Z,20.00
2019-06-07T08:21:24.363Z,19.94
2019-06-07T08:23:47.397Z,19.96
2019-06-07T08:26:18.882Z,19.94
2019-06-07T08:28:55.890Z,19.97
2019-06-07T08:31:24.832Z,20.00
2019-06-07T08:33:58.909Z,19.89
2019-06-07T08:36:41.175Z,19.89
2019-06-07T08:39:07.522Z,20.63
2019-06-07T08:41:37.739Z,21.56
2019-06-07T08:44:23.202Z,22.28
2019-06-07T08:46:44.003Z,22.44
2019-06-07T08:49:16.044Z,21.92
2019-06-07T08:51:48.176Z,21.81
2019-06-07T08:54:23.204Z,22.04
2019-06-07T08:57:06.424Z,22.10
2019-06-07T08:59:27.848Z,22.34
2019-06-07T09:02:06.589Z,22.47
2019-06-07T09:04:34.762Z,22.62
2019-06-07T09:07:18.797Z,22.80
2019-06-07T09:09:39.973Z,22.34
2019-06-07T09:12:11.784Z,22.76
2019-06-07T09:14:59.938Z,23.34
2019-06-07T09:17:17.099Z,23.61
2019-06-07T09:19:49.106Z,23.46
2019-06-07T09:22:21.347Z,23.24
2019-06-07T09:25:00.200Z,23.06
2019-06-07T09:27:28.651Z,22.96
2019-06-07T09:30:07.623Z,23.00
2019-06-07T09:32:35.198Z,23.16
2019-06-07T09:35:12.378Z,23.15
2019-06-07T09:40:27.535Z,22.88
2019-06-07T09:43:47.484Z,22.97
2019-06-07T09:45:31.970Z,23.12
2019-06-07T09:48:13.874Z,23.40
2019-06-07T09:50:40.804Z,24.08
2019-06-07T09:53:21.678Z,24.63
2019-06-07T09:55:47.071Z,24.69
2019-06-07T09:58:50.488Z,24.32
2019-06-07T10:00:52.459Z,24.32
2019-06-07T10:03:26.322Z,24.20
2019-06-07T10:05:59.724Z,24.60
2019-06-07T10:09:42.321Z,24.26
2019-06-07T10:11:09.156Z,23.89
2019-06-07T10:13:42.938Z,24.58
2019-06-07T10:16:14.986Z,25.34
2019-06-07T10:18:46.375Z,25.19
2019-06-07T10:21:18.602Z,25.18
2019-06-07T10:23:56.311Z,25.28
2019-06-07T10:26:33.670Z,25.18
2019-06-07T10:29:06.794Z,25.32
2019-06-07T10:31:40.807Z,25.59
2019-06-07T10:34:16.006Z,26.08
2019-06-07T10:36:51.421Z,26.23
2019-06-07T10:39:26.866Z,26.24
2019-06-07T10:42:13.378Z,26.08
2019-06-07T10:44:46.168Z,26.21
2019-06-07T10:47:18.319Z,26.54
2019-06-07T10:49:50.374Z,24.75
2019-06-07T10:52:32.710Z,24.44
2019-06-07T10:55:05.059Z,25.28
2019-06-07T10:57:37.322Z,26.20
2019-06-07T11:00:11.780Z,25.16
2019-06-07T11:02:49.954Z,25.26
2019-06-07T11:05:22.927Z,26.56
2019-06-07T11:07:55.522Z,26.94
2019-06-07T11:10:30.814Z,27.17
2019-06-07T11:13:04.223Z,27.68
2019-06-07T11:15:35.705Z,28.08
2019-06-07T11:18:10.254Z,27.74
2019-06-07T11:20:48.108Z,26.48
2019-06-07T11:23:20.838Z,25.84
2019-06-07T11:26:08.400Z,25.48
2019-06-07T11:29:19.203Z,25.99
2019-06-07T11:32:02.721Z,26.19
2019-06-07T11:34:36.578Z,26.33
2019-06-07T11:41:05.101Z,25.89
2019-06-07T11:43:54.745Z,25.91
2019-06-07T11:46:28.065Z,25.23
2019-06-07T11:52:33.537Z,24.60
2019-06-07T11:55:09.354Z,24.81
2019-06-07T11:57:43.279Z,24.66
2019-06-07T12:00:18.750Z,24.37
2019-06-07T12:02:51.035Z,24.62
2019-06-07T12:05:22.561Z,25.07
2019-06-07T12:07:57.183Z,25.44
2019-06-07T12:10:41.801Z,25.73
2019-06-07T12:13:03.080Z,25.85
2019-06-07T12:15:35.429Z,25.70
2019-06-07T12:18:06.989Z,25.12
2019-06-07T12:20:39.364Z,24.42
2019-06-07T12:23:12.026Z,24.39
2019-06-07T12:25:43.383Z,24.56
2019-06-07T12:28:14.845Z,24.27
2019-06-07T12:30:47.009Z,24.94
2019-06-07T12:33:19.710Z,24.74
2019-06-07T12:39:46.344Z,25.58
2019-06-07T12:42:45.427Z,25.61
2019-06-07T12:45:40.161Z,25.64
2019-06-07T12:47:55.333Z,25.51
2019-06-07T12:50:41.740Z,26.11
2019-06-07T12:52:59.914Z,26.28
2019-06-07T12:55:31.321Z,26.27
2019-06-07T12:58:02.700Z,26.02
2019-06-07T13:00:34.020Z,25.78
2019-06-07T13:03:06.659Z,25.64
2019-06-07T13:05:39.817Z,25.59
2019-06-07T13:08:12.291Z,25.26
2019-06-07T13:10:43.906Z,25.32
2019-06-07T13:13:15.788Z,25.82
2019-06-07T13:15:48.053Z,25.83
2019-06-07T13:18:21.620Z,25.13
2019-06-07T13:20:55.484Z,24.27
2019-06-07T13:23:29.013Z,24.34
2019-06-07T13:26:45.806Z,24.93
2019-06-07T13:29:52.013Z,25.38
2019-06-07T14:27:31.912Z,25.79
2019-06-07T14:30:57.879Z,25.67
2019-06-07T14:33:47.352Z,25.75
2019-06-07T14:37:04.229Z,25.65
2019-06-07T14:41:29.651Z,25.65
2019-06-07T14:45:05.739Z,25.64
2019-06-07T14:48:01.980Z,26.35
2019-06-07T14:51:04.885Z,25.82
2019-06-07T14:54:21.426Z,25.32
2019-06-07T14:57:10.804Z,25.55
2019-06-07T15:05:01.917Z,25.48
2019-06-07T17:18:25.498Z,26.65
2019-06-07T17:20:59.527Z,26.81
2019-06-07T17:23:31.599Z,26.83
2019-06-07T17:26:03.944Z,26.90
2019-06-07T17:28:36.032Z,26.94
2019-06-07T17:31:08.020Z,26.83
2019-06-07T17:33:40.083Z,26.78
2019-06-07T17:36:12.197Z,26.83
2019-06-07T17:38:44.550Z,26.86
2019-06-07T17:41:16.692Z,27.02
2019-06-07T17:43:57.802Z,27.12
2019-06-07T17:46:22.662Z,27.22
2019-06-07T17:48:54.827Z,27.20
2019-06-07T17:51:26.971Z,27.12
2019-06-07T17:53:59.274Z,26.81
2019-06-07T17:56:31.534Z,26.65
2019-06-07T17:59:03.587Z,26.52
2019-06-07T18:01:41.560Z,26.79
2019-06-07T18:04:11.778Z,26.32
2019-06-07T18:06:45.395Z,26.18
2019-06-07T18:09:17.484Z,26.06
2019-06-07T18:11:49.999Z,25.82
2019-06-07T18:14:22.494Z,25.40
2019-06-07T18:16:54.895Z,25.02
2019-06-07T18:19:27.090Z,25.17
2019-06-07T18:21:59.267Z,25.15
2019-06-07T18:24:31.539Z,25.01
2019-06-07T18:27:06.989Z,24.82
2019-06-07T18:29:37.714Z,24.72
2019-06-07T18:32:13.355Z,24.58
2019-06-07T18:34:44.035Z,24.37
2019-06-07T18:37:16.530Z,24.28
2019-06-07T18:42:56.999Z,24.10
2019-06-07T18:45:30.771Z,23.87
2019-06-07T18:48:03.034Z,23.78
2019-06-07T18:50:36.762Z,23.56
2019-06-07T18:53:08.195Z,23.57
2019-06-07T18:55:40.696Z,23.47
2019-06-07T18:58:12.336Z,23.45
2019-06-07T19:00:44.607Z,23.28
2019-06-07T19:03:18.512Z,23.29
2019-06-07T19:05:51.981Z,23.15
2019-06-07T19:08:25.172Z,23.03
2019-06-07T19:11:00.769Z,22.85
2019-06-07T19:13:38.237Z,22.82
2019-06-07T19:16:27.362Z,22.76
2019-06-07T19:18:57.911Z,22.58
2019-06-07T19:21:33.877Z,22.46
2019-06-07T19:24:05.454Z,22.63
2019-06-07T19:26:38.166Z,22.67
2019-06-07T19:29:12.671Z,22.58
2019-06-07T19:31:44.133Z,22.43
2019-06-07T19:34:15.471Z,22.23
2019-06-07T19:36:49.010Z,22.22
2019-06-07T19:39:21.429Z,22.14
2019-06-07T19:41:53.974Z,22.01
2019-06-07T19:44:25.495Z,21.80
2019-06-07T19:46:58.498Z,21.62
2019-06-07T19:49:30.797Z,21.38
2019-06-07T19:52:03.305Z,21.34
2019-06-07T19:54:35.512Z,21.25
2019-06-07T19:57:07.577Z,21.13
2019-06-07T19:59:38.949Z,21.10
2019-06-07T20:02:11.025Z,20.97
2019-06-07T20:04:43.040Z,20.94
2019-06-07T20:07:20.039Z,20.79
2019-06-07T20:09:54.455Z,20.66
2019-06-07T20:12:35.650Z,20.67
2019-06-07T20:15:49.142Z,20.62
2019-06-07T20:18:34.343Z,20.56
2019-06-07T20:21:58.782Z,20.59
2019-06-07T20:28:09.422Z,20.41
2019-06-07T20:31:06.397Z,20.47
2019-06-07T20:37:45.146Z,20.26
2019-06-07T20:40:34.513Z,20.18
2019-06-07T20:43:18.772Z,20.30
2019-06-07T20:45:46.786Z,20.19
2019-06-07T20:48:23.425Z,20.16
2019-06-07T20:51:37.369Z,20.06
2019-06-07T20:54:09.190Z,20.02
2019-06-07T20:56:40.805Z,19.98
2019-06-07T20:59:14.773Z,19.99
2019-06-07T21:01:50.780Z,20.01
2019-06-07T21:04:22.809Z,19.95
2019-06-07T21:10:12.206Z,19.86
2019-06-07T21:12:44.372Z,19.74
2019-06-07T21:15:15.992Z,19.80
2019-06-07T21:17:47.474Z,19.84
2019-06-07T21:20:19.143Z,19.68
2019-06-07T21:22:56.260Z,19.58
2019-06-07T21:25:24.765Z,19.52
2019-06-07T21:27:56.306Z,19.53
2019-06-07T21:30:49.169Z,19.47
2019-06-07T21:33:20.340Z,19.43
2019-06-07T21:35:52.464Z,19.46
2019-06-07T21:38:24.169Z,19.47
2019-06-07T21:40:55.445Z,19.42
2019-06-07T21:43:31.536Z,19.39
2019-06-07T21:46:07.291Z,19.38
2019-06-07T21:48:37.440Z,19.30
2019-06-07T21:51:08.849Z,19.32
2019-06-07T21:53:42.200Z,19.28
2019-06-07T21:56:13.594Z,19.13
2019-06-07T21:58:44.920Z,19.08
2019-06-07T22:01:26.024Z,19.08
2019-06-07T22:03:57.392Z,19.05
2019-06-07T22:06:28.665Z,18.97
2019-06-07T22:09:00.065Z,18.93
2019-06-07T22:11:32.053Z,18.93
2019-06-07T22:14:04.465Z,18.85
2019-06-07T22:16:35.856Z,18.89
2019-06-07T22:19:08.672Z,18.91
2019-06-07T22:21:40.158Z,18.86
2019-06-07T22:24:13.093Z,18.77
2019-06-07T22:26:44.520Z,18.76
2019-06-07T22:29:15.868Z,18.77
2019-06-07T22:31:47.804Z,18.80
2019-06-07T22:34:19.843Z,18.70
2019-06-07T22:36:51.888Z,18.63
2019-06-07T22:39:24.062Z,18.59
2019-06-07T22:41:57.474Z,18.52
2019-06-07T22:44:28.397Z,18.49
2019-06-07T22:47:00.748Z,18.41
2019-06-07T22:49:32.132Z,18.37
2019-06-07T22:52:08.899Z,18.35
2019-06-07T22:54:37.605Z,18.32
2019-06-07T22:57:18.853Z,18.26
2019-06-07T22:59:50.262Z,18.21
2019-06-07T23:02:21.594Z,18.14
2019-06-07T23:04:53.624Z,18.08
2019-06-07T23:07:25.747Z,18.12
2019-06-07T23:10:00.709Z,18.05
2019-06-07T23:12:41.178Z,16.92
2019-06-07T23:15:15.884Z,16.71
2019-06-07T23:17:47.855Z,18.16
2019-06-07T23:20:20.147Z,18.14
2019-06-07T23:22:51.457Z,18.06
2019-06-07T23:25:24.687Z,18.02
2019-06-07T23:28:02.117Z,18.07
2019-06-07T23:30:35.479Z,18.20
2019-06-07T23:33:07.445Z,18.13
2019-06-07T23:35:39.400Z,18.06
2019-06-07T23:38:11.368Z,18.04
2019-06-07T23:40:43.371Z,18.03
2019-06-07T23:43:21.831Z,17.96
2019-06-07T23:45:53.143Z,17.97
2019-06-07T23:48:24.445Z,17.89
2019-06-07T23:50:55.675Z,17.91
2019-06-07T23:53:27.763Z,17.87
2019-06-07T23:56:01.476Z,17.86
2019-06-07T23:58:32.838Z,17.91
